A- A+ FrançaisEnglishEspañol中国

Services sur Internet Soldes sur Internet Des idées de cadeaux Météo Météo aéro

La météo à : Autours de vous Tarbes-Lourdes-PyrénéesSt-Nazaire-Montoir Alencon-ValframbertNancy-Essey

carte TEMSI

Pour illustration, la carte TEMSI n'est pas mise à jour

La météo aéronautique pour les pilotes, la préparation du vol avec les METAR (METeorological Aerodrome Report, message d'observation des conditions météorologiques pour l'aviation) et Les TAF (Terminal Aerodrome Forecast : message de prévision à court terme des conditions météorologiques pour l'aviation). Et les autres ressources comme les VAC (Visual Approch Chart) et les NOTAM (Notice To Airman) pour préprer les vols.

Aéroport Odense (Danemark) / OACI EKOD/ IATA ODE

L'altitude de l'aéroport Odense est de 17 m = 56 ft. Il est situé à proximité de Odense (Danemark). La météo générale à 5 jours est disponible pour Otterup situé à 6 km.

METAR de l'aéroport Odense - EKOD

EKOD 101550Z 17012KT CAVOK 04/03 Q1015 R06/190094

Décodage du METAR de l'aéroport Odense (DK)

METAR émis par EKOD le mardi 10 décembre 2019 à 15:50 heure TU, il y a 36 minutes.

La visibilité est de supérieure à 10 km = supérieure à 6.2 sm.

La température est de 4°C = 39 °F et le point rosée est de 3°C = 37 °F . Ce qui correspond à 93% d'humidité relative.

Le QNH est de 1015 hPa = 29.97 inHg

Vent de 12 kt = 22 km/h, orienté à 170°.

Pas de nuages.

R06/190094

TAF de l'aéroport Odense - EKOD

EKOD 101158Z 1012/1016 20010KT 9999 SCT030

EKOD 101158Z 1012/1016 20010KT 9999 nuages épars à 030

Aéroport à proximité de Odense

Météo générale à 5 jours à Otterup (6 km)Aéroport Endelave (32 km)Aéroport Sydfyn Tasinge (53 km)Aéroport Haderslev (55 km)Aéroport Kolding Vamdrup (63 km)Aéroport Sonderborg (66 km)Aéroport Aero (70 km)

Vue aérienne de l'aéroport Odense

NOTAM de l'aéroport Odense

Les NOTAM sont fournis sans aucune garantie de leur actualité. Le pilote est le seul responsable de la vérification de sa validité avant de l'utiliser opérationnellement pour préparer un vol ou l'utiliser lors de sa navigation.

Pas de NOTAM

Sources des données